Time,TemperatureF,DewpointF,PressureIn,WindDirection,WindDirectionDegrees,WindSpeedMPH,WindSpeedGustMPH,Humidity,HourlyPrecipIn,Conditions,Clouds,dailyrainin,SoftwareType,DateUTC
2013-01-07 00:02:00,19.9,13.3,29.09,South,180,10.5,10.5,75,0.00,,SCT,0.00,WeatherDisplay:10.37,2013-01-07 06:02:00,
2013-01-07 00:07:00,20.1,13.8,29.09,SSW,202,11.5,11.5,76,0.00,,SCT,0.00,WeatherDisplay:10.37,2013-01-07 06:07:00,
2013-01-07 00:12:00,20.3,13.9,29.09,ESE,112,8.1,8.1,76,0.00,,SCT,0.00,WeatherDisplay:10.37,2013-01-07 06:12:00,
2013-01-07 00:17:00,20.7,14.3,29.09,SSE,158,9.7,9.7,76,0.00,,SCT,0.00,WeatherDisplay:10.37,2013-01-07 06:17:00,
2013-01-07 00:22:00,21.0,14.6,29.09,SSW,202,10.4,10.5,76,0.00,,SCT,0.00,WeatherDisplay:10.37,2013-01-07 06:22:00,
2013-01-07 00:27:00,21.4,15.0,29.09,SSE,158,15.0,15.0,76,0.00,,SCT,0.00,WeatherDisplay:10.37,2013-01-07 06:27:00,
2013-01-07 00:32:00,21.6,14.9,29.09,SSE,158,13.8,13.8,75,0.00,,SCT,0.00,WeatherDisplay:10.37,2013-01-07 06:32:00,
2013-01-07 00:37:00,21.9,15.2,29.03,SSE,158,8.1,8.1,75,0.00,,SCT,0.00,WeatherDisplay:10.37,2013-01-07 06:37:00,
2013-01-07 00:42:00,21.9,15.2,29.03,SSW,202,9.2,9.2,75,0.00,,SCT,0.00,WeatherDisplay:10.37,2013-01-07 06:42:00,
2013-01-07 00:47:00,22.3,15.6,29.03,SSE,158,13.8,13.8,75,0.00,,SCT,0.00,WeatherDisplay:10.37,2013-01-07 06:47:00,
2013-01-07 00:52:00,22.6,15.9,29.03,SSE,158,10.4,10.4,75,0.00,,SCT,0.00,WeatherDisplay:10.37,2013-01-07 06:52:00,
2013-01-07 00:57:00,23.0,15.9,29.03,SSE,158,12.7,12.7,74,0.00,,SCT,0.00,WeatherDisplay:10.37,2013-01-07 06:57:00,
2013-01-07 01:02:00,23.2,15.8,29.03,SSE,158,15.0,15.0,73,0.00,,SCT,0.00,WeatherDisplay:10.37,2013-01-07 07:02:00,
2013-01-07 01:07:00,23.5,16.2,29.03,SSW,202,14.3,14.3,73,0.00,,SCT,0.00,WeatherDisplay:10.37,2013-01-07 07:07:00,
2013-01-07 01:12:00,23.7,16.0,29.03,SSW,202,18.4,18.4,72,0.00,,SCT,0.00,WeatherDisplay:10.37,2013-01-07 07:12:00,
2013-01-07 01:17:00,23.7,16.0,29.03,South,180,10.9,10.9,72,0.00,,SCT,0.00,WeatherDisplay:10.37,2013-01-07 07:17:00,
2013-01-07 01:22:00,23.9,15.9,29.00,South,180,15.0,15.0,71,0.00,,SCT,0.00,WeatherDisplay:10.37,2013-01-07 07:22:00,
2013-01-07 01:27:00,23.7,15.7,29.00,SSW,202,10.4,10.4,71,0.00,,SCT,0.00,WeatherDisplay:10.37,2013-01-07 07:27:00,
2013-01-07 01:32:00,23.7,15.7,29.00,South,180,11.5,11.5,71,0.00,,SCT,0.00,WeatherDisplay:10.37,2013-01-07 07:32:00,
2013-01-07 01:37:00,23.7,15.7,29.00,SSE,158,13.2,13.2,71,0.00,,SCT,0.00,WeatherDisplay:10.37,2013-01-07 07:37:00,
2013-01-07 01:42:00,23.5,15.5,29.00,SSE,158,13.8,13.8,71,0.00,,SCT,0.00,WeatherDisplay:10.37,2013-01-07 07:42:00,
2013-01-07 01:47:00,23.5,15.5,29.00,SE,135,13.8,13.8,71,0.00,,SCT,0.00,WeatherDisplay:10.37,2013-01-07 07:47:00,
2013-01-07 01:52:00,23.5,15.5,29.00,SSW,202,15.2,15.2,71,0.00,,SCT,0.00,WeatherDisplay:10.37,2013-01-07 07:52:00,
2013-01-07 01:57:00,23.5,15.5,29.00,South,180,17.3,17.3,71,0.00,,SCT,0.00,WeatherDisplay:10.37,2013-01-07 07:57:00,
2013-01-07 02:02:00,23.5,15.5,29.00,SSE,158,12.7,12.7,71,0.00,,SCT,0.00,WeatherDisplay:10.37,2013-01-07 08:02:00,
2013-01-07 02:07:00,23.5,15.8,29.00,South,180,10.4,10.4,72,0.00,,SCT,0.00,WeatherDisplay:10.37,2013-01-07 08:07:00,
2013-01-07 02:12:00,23.5,15.8,29.00,SSW,202,10.4,10.4,72,0.00,,SCT,0.00,WeatherDisplay:10.37,2013-01-07 08:12:00,
2013-01-07 02:17:00,23.5,15.8,29.00,SSE,158,11.5,11.5,72,0.00,,SCT,0.00,WeatherDisplay:10.37,2013-01-07 08:17:00,
2013-01-07 02:22:00,23.5,15.8,29.00,SSE,158,8.1,8.1,72,0.00,,SCT,0.00,WeatherDisplay:10.37,2013-01-07 08:22:00,
2013-01-07 02:27:00,23.5,15.8,29.00,SSE,158,13.8,13.8,72,0.00,,SCT,0.00,WeatherDisplay:10.37,2013-01-07 08:27:00,
2013-01-07 02:32:00,23.9,16.2,29.00,SSE,158,9.8,9.8,72,0.00,,SCT,0.00,WeatherDisplay:10.37,2013-01-07 08:32:00,
2013-01-07 02:37:00,24.1,16.4,28.97,SSW,202,12.7,12.7,72,0.00,,SCT,0.00,WeatherDisplay:10.37,2013-01-07 08:37:00,
2013-01-07 02:42:00,24.4,16.7,28.97,SSE,158,15.0,15.0,72,0.00,,SCT,0.00,WeatherDisplay:10.37,2013-01-07 08:42:00,
2013-01-07 02:47:00,24.8,16.7,28.97,South,180,10.7,10.7,71,0.00,,SCT,0.00,WeatherDisplay:10.37,2013-01-07 08:47:00,
2013-01-07 02:52:00,24.8,16.4,29.00,SSE,158,10.4,10.4,70,0.00,,SCT,0.00,WeatherDisplay:10.37,2013-01-07 08:52:00,
2013-01-07 02:57:00,25.3,16.6,29.00,SE,135,11.5,11.5,69,0.00,,SCT,0.00,WeatherDisplay:10.37,2013-01-07 08:57:00,
2013-01-07 03:02:00,25.5,16.4,29.00,SE,135,13.0,13.0,68,0.00,,SCT,0.00,WeatherDisplay:10.37,2013-01-07 09:02:00,
2013-01-07 03:07:00,25.9,16.8,28.97,SSW,202,9.2,9.2,68,0.00,,SCT,0.00,WeatherDisplay:10.37,2013-01-07 09:07:00,
2013-01-07 03:12:00,26.1,16.9,28.97,WSW,248,5.8,6.7,68,0.00,,SCT,0.00,WeatherDisplay:10.37,2013-01-07 09:12:00,
2013-01-07 03:17:00,26.1,16.9,28.97,SSE,158,6.9,6.9,68,0.00,,SCT,0.00,WeatherDisplay:10.37,2013-01-07 09:17:00,
2013-01-07 03:22:00,26.4,17.3,28.97,SSE,158,8.1,8.1,68,0.00,,SCT,0.00,WeatherDisplay:10.37,2013-01-07 09:22:00,
2013-01-07 03:27:00,26.8,17.3,28.97,SSW,202,5.8,5.8,67,0.00,,SCT,0.00,WeatherDisplay:10.37,2013-01-07 09:27:00,
2013-01-07 03:32:00,27.7,18.5,28.97,SW,225,6.9,6.9,68,0.00,,SCT,0.00,WeatherDisplay:10.37,2013-01-07 09:32:00,
2013-01-07 03:37:00,28.6,18.7,28.97,South,180,10.4,10.4,66,0.00,,SCT,0.00,WeatherDisplay:10.37,2013-01-07 09:37:00,
2013-01-07 03:42:00,29.3,19.0,28.97,WSW,248,8.1,8.1,65,0.00,,SCT,0.00,WeatherDisplay:10.37,2013-01-07 09:42:00,
2013-01-07 03:47:00,29.3,18.6,28.97,WSW,248,6.9,6.9,64,0.00,,SCT,0.00,WeatherDisplay:10.37,2013-01-07 09:47:00,
2013-01-07 03:52:00,29.5,18.4,28.97,WSW,248,9.2,9.2,63,0.00,,SCT,0.00,WeatherDisplay:10.37,2013-01-07 09:52:00,
2013-01-07 03:57:00,30.0,18.9,28.97,WSW,248,10.4,10.4,63,0.00,,SCT,0.00,WeatherDisplay:10.37,2013-01-07 09:57:00,
2013-01-07 04:02:00,30.6,18.7,28.97,SSW,202,10.4,10.4,61,0.00,,SCT,0.00,WeatherDisplay:10.37,2013-01-07 10:02:00,
2013-01-07 04:07:00,30.6,18.7,28.97,South,180,11.5,11.5,61,0.00,,SCT,0.00,WeatherDisplay:10.37,2013-01-07 10:07:00,
2013-01-07 04:12:00,30.2,18.7,28.97,SW,225,6.9,6.9,62,0.00,,SCT,0.00,WeatherDisplay:10.37,2013-01-07 10:12:00,
2013-01-07 04:17:00,30.2,18.7,28.97,SSW,202,11.4,11.4,62,0.00,,SCT,0.00,WeatherDisplay:10.37,2013-01-07 10:17:00,
2013-01-07 04:22:00,30.2,18.7,28.97,SSW,202,9.2,9.2,62,0.00,,SCT,0.00,WeatherDisplay:10.37,2013-01-07 10:22:00,
2013-01-07 04:27:00,30.2,18.7,28.97,SSW,202,12.7,12.7,62,0.00,,SCT,0.00,WeatherDisplay:10.37,2013-01-07 10:27:00,
2013-01-07 04:32:00,30.2,18.7,28.97,South,180,6.9,6.9,62,0.00,,SCT,0.00,WeatherDisplay:10.37,2013-01-07 10:32:00,
2013-01-07 04:37:00,30.2,18.7,28.97,WNW,292,13.8,13.8,62,0.00,,SCT,0.00,WeatherDisplay:10.37,2013-01-07 10:37:00,
2013-01-07 04:42:00,30.2,18.7,28.97,SSW,202,10.2,12.8,62,0.00,,SCT,0.00,WeatherDisplay:10.37,2013-01-07 10:42:00,
2013-01-07 04:47:00,29.8,18.8,28.97,WSW,248,7.1,8.1,63,0.00,,SCT,0.00,WeatherDisplay:10.37,2013-01-07 10:47:00,
2013-01-07 04:53:00,29.7,18.6,28.97,WSW,248,7.8,7.8,63,0.00,,SCT,0.00,WeatherDisplay:10.37,2013-01-07 10:53:00,
2013-01-07 04:58:00,29.5,18.8,28.97,SSW,202,12.7,12.7,64,0.00,,SCT,0.00,WeatherDisplay:10.37,2013-01-07 10:58:00,
2013-01-07 05:03:00,29.5,18.8,28.97,SSW,202,10.4,10.4,64,0.00,,SCT,0.00,WeatherDisplay:10.37,2013-01-07 11:03:00,
2013-01-07 05:08:00,29.3,18.6,28.94,WNW,292,6.9,6.9,64,0.00,,SCT,0.00,WeatherDisplay:10.37,2013-01-07 11:08:00,
2013-01-07 05:13:00,29.1,18.8,28.94,SSE,158,8.1,8.1,65,0.00,,SCT,0.00,WeatherDisplay:10.37,2013-01-07 11:13:00,
2013-01-07 05:18:00,28.9,18.6,28.94,WSW,248,8.5,8.5,65,0.00,,SCT,0.00,WeatherDisplay:10.37,2013-01-07 11:18:00,
2013-01-07 05:23:00,28.9,19.0,28.97,SW,225,11.5,11.5,66,0.00,,SCT,0.00,WeatherDisplay:10.37,2013-01-07 11:23:00,
2013-01-07 05:28:00,28.8,18.8,28.97,SSW,202,9.2,9.2,66,0.00,,SCT,0.00,WeatherDisplay:10.37,2013-01-07 11:28:00,
2013-01-07 05:33:00,28.6,18.7,28.97,SSW,202,9.2,9.2,66,0.00,,SCT,0.00,WeatherDisplay:10.37,2013-01-07 11:33:00,
2013-01-07 05:38:00,28.6,19.0,28.97,WSW,248,12.1,12.1,67,0.00,,SCT,0.00,WeatherDisplay:10.37,2013-01-07 11:38:00,
2013-01-07 05:43:00,28.6,19.0,28.97,SSW,202,10.4,10.4,67,0.00,,SCT,0.00,WeatherDisplay:10.37,2013-01-07 11:43:00,
2013-01-07 05:48:00,28.6,19.4,28.97,SSW,202,9.2,9.2,68,0.00,,SCT,0.00,WeatherDisplay:10.37,2013-01-07 11:48:00,
2013-01-07 05:53:00,28.6,19.4,28.94,WSW,248,9.2,9.2,68,0.00,,SCT,0.00,WeatherDisplay:10.37,2013-01-07 11:53:00,
2013-01-07 05:58:00,28.6,19.4,28.94,SW,225,9.2,9.2,68,0.00,,SCT,0.00,WeatherDisplay:10.37,2013-01-07 11:58:00,
2013-01-07 06:03:00,28.4,19.5,28.94,SSW,202,9.2,9.2,69,0.00,,SCT,0.00,WeatherDisplay:10.37,2013-01-07 12:03:00,
2013-01-07 06:08:00,28.2,19.3,28.97,WSW,248,9.2,9.2,69,0.00,,SCT,0.00,WeatherDisplay:10.37,2013-01-07 12:08:00,
2013-01-07 06:13:00,28.4,19.5,28.97,SSW,202,8.5,8.5,69,0.00,,SCT,0.00,WeatherDisplay:10.37,2013-01-07 12:13:00,
2013-01-07 06:18:00,28.4,19.5,28.97,SSW,202,8.1,8.1,69,0.00,,SCT,0.00,WeatherDisplay:10.37,2013-01-07 12:18:00,
2013-01-07 06:23:00,28.2,19.3,28.97,WSW,248,10.4,10.4,69,0.00,,SCT,0.00,WeatherDisplay:10.37,2013-01-07 12:23:00,
2013-01-07 06:28:00,28.0,19.2,28.97,SSW,202,6.4,6.4,69,0.00,,SCT,0.00,WeatherDisplay:10.37,2013-01-07 12:28:00,
2013-01-07 06:33:00,27.9,19.0,28.97,WSW,248,6.2,6.2,69,0.00,,SCT,0.00,WeatherDisplay:10.37,2013-01-07 12:33:00,
2013-01-07 06:38:00,27.9,19.3,28.94,ESE,112,7.6,7.6,70,0.00,,SCT,0.00,WeatherDisplay:10.37,2013-01-07 12:38:00,
2013-01-07 06:43:00,27.9,19.3,28.94,SW,225,9.2,9.2,70,0.00,,SCT,0.00,WeatherDisplay:10.37,2013-01-07 12:43:00,
2013-01-07 06:48:00,27.9,19.3,28.94,WSW,248,5.8,5.9,70,0.00,,SCT,0.00,WeatherDisplay:10.37,2013-01-07 12:48:00,
2013-01-07 06:53:00,27.7,19.2,28.97,SSW,202,9.2,9.2,70,0.00,,SCT,0.00,WeatherDisplay:10.37,2013-01-07 12:53:00,
2013-01-07 06:58:00,27.5,19.0,28.97,SSW,202,8.1,8.1,70,0.00,,SCT,0.00,WeatherDisplay:10.37,2013-01-07 12:58:00,
2013-01-07 07:03:00,27.3,18.8,28.97,SSW,202,8.1,8.1,70,0.00,,SCT,0.00,WeatherDisplay:10.37,2013-01-07 13:03:00,
2013-01-07 07:08:00,27.0,18.8,28.97,SSW,202,8.1,8.1,71,0.00,,SCT,0.00,WeatherDisplay:10.37,2013-01-07 13:08:00,
2013-01-07 07:13:00,27.0,18.8,28.97,SSW,202,5.9,6.0,71,0.00,,SCT,0.00,WeatherDisplay:10.37,2013-01-07 13:13:00,
2013-01-07 07:18:00,27.0,18.8,28.97,South,180,7.4,7.4,71,0.00,,SCT,0.00,WeatherDisplay:10.37,2013-01-07 13:18:00,
2013-01-07 07:23:00,27.0,18.8,28.94,WSW,248,5.8,5.8,71,0.00,,SCT,0.00,WeatherDisplay:10.37,2013-01-07 13:23:00,
2013-01-07 07:28:00,27.0,18.8,28.94,SSE,158,9.2,9.2,71,0.00,,SCT,0.00,WeatherDisplay:10.37,2013-01-07 13:28:00,
2013-01-07 07:33:00,27.0,18.8,28.94,SSW,202,7.4,7.4,71,0.00,,SCT,0.00,WeatherDisplay:10.37,2013-01-07 13:33:00,
2013-01-07 07:38:00,26.8,18.6,28.97,SSE,158,9.7,9.7,71,0.00,,SCT,0.00,WeatherDisplay:10.37,2013-01-07 13:38:00,
2013-01-07 07:43:00,26.8,19.0,28.97,WSW,248,6.9,6.9,72,0.00,,SCT,0.00,WeatherDisplay:10.37,2013-01-07 13:43:00,
2013-01-07 07:48:00,26.8,19.0,28.97,SSW,202,5.8,5.8,72,0.00,,SCT,0.00,WeatherDisplay:10.37,2013-01-07 13:48:00,
2013-01-07 07:53:00,26.8,19.0,28.94,SW,225,8.1,8.1,72,0.00,,SCT,0.00,WeatherDisplay:10.37,2013-01-07 13:53:00,
2013-01-07 07:58:00,26.8,19.0,28.94,SSW,202,10.5,10.5,72,0.00,,SCT,0.00,WeatherDisplay:10.37,2013-01-07 13:58:00,
2013-01-07 08:03:00,27.0,19.1,28.94,WSW,248,5.8,5.8,72,0.00,,SCT,0.00,WeatherDisplay:10.37,2013-01-07 14:03:00,
2013-01-07 08:08:00,27.0,19.1,28.97,SW,225,8.1,8.1,72,0.00,,SCT,0.00,WeatherDisplay:10.37,2013-01-07 14:08:00,
2013-01-07 08:13:00,26.8,19.0,28.97,SW,225,5.8,5.8,72,0.00,,SCT,0.00,WeatherDisplay:10.37,2013-01-07 14:13:00,
2013-01-07 08:18:00,27.0,19.1,28.97,SW,225,6.9,6.9,72,0.00,,SCT,0.00,WeatherDisplay:10.37,2013-01-07 14:18:00,
2013-01-07 08:23:00,27.1,19.0,28.94,SSW,202,6.2,6.2,71,0.00,,SCT,0.00,WeatherDisplay:10.37,2013-01-07 14:23:00,
2013-01-07 08:28:00,28.0,19.5,28.94,SSW,202,10.4,10.4,70,0.00,,SCT,0.00,WeatherDisplay:10.37,2013-01-07 14:28:00,
2013-01-07 08:33:00,27.9,19.0,28.94,SSW,202,9.2,9.2,69,0.00,,SCT,0.00,WeatherDisplay:10.37,2013-01-07 14:33:00,
2013-01-07 08:38:00,27.7,18.8,28.94,South,180,4.6,4.6,69,0.00,,SCT,0.00,WeatherDisplay:10.37,2013-01-07 14:38:00,
2013-01-07 08:43:00,27.9,19.0,28.94,SSW,202,8.1,8.1,69,0.00,,SCT,0.00,WeatherDisplay:10.37,2013-01-07 14:43:00,
2013-01-07 08:48:00,28.0,19.2,28.94,WSW,248,8.1,8.1,69,0.00,,SCT,0.00,WeatherDisplay:10.37,2013-01-07 14:48:00,
2013-01-07 08:53:00,27.9,18.7,28.97,WSW,248,8.1,8.1,68,0.00,,SCT,0.00,WeatherDisplay:10.37,2013-01-07 14:53:00,
2013-01-07 08:58:00,27.9,19.0,28.97,SSW,202,8.1,8.1,69,0.00,,SCT,0.00,WeatherDisplay:10.37,2013-01-07 14:58:00,
2013-01-07 09:03:00,28.2,19.0,28.97,WSW,248,8.1,8.1,68,0.00,,SCT,0.00,WeatherDisplay:10.37,2013-01-07 15:03:00,
2013-01-07 09:08:00,28.8,19.2,28.97,South,180,10.4,10.4,67,0.00,,SCT,0.00,WeatherDisplay:10.37,2013-01-07 15:08:00,
2013-01-07 09:14:00,28.8,18.8,28.97,SSW,202,8.1,8.1,66,0.00,,SCT,0.00,WeatherDisplay:10.37,2013-01-07 15:14:00,
2013-01-07 09:19:00,28.6,19.0,28.97,SSW,202,9.2,9.2,67,0.00,,SCT,0.00,WeatherDisplay:10.37,2013-01-07 15:19:00,
2013-01-07 09:24:00,28.8,19.2,28.97,South,180,8.1,8.1,67,0.00,,SCT,0.00,WeatherDisplay:10.37,2013-01-07 15:24:00,
2013-01-07 09:29:00,29.5,19.5,28.97,WSW,248,5.8,5.8,66,0.00,,SCT,0.00,WeatherDisplay:10.37,2013-01-07 15:29:00,
2013-01-07 09:34:00,30.0,19.7,28.97,SSW,202,5.8,5.8,65,0.00,,SCT,0.00,WeatherDisplay:10.37,2013-01-07 15:34:00,
2013-01-07 09:39:00,30.0,19.3,28.97,SSW,202,8.1,8.1,64,0.00,,SCT,0.00,WeatherDisplay:10.37,2013-01-07 15:39:00,
2013-01-07 09:44:00,30.2,19.5,28.97,WNW,292,8.1,8.1,64,0.00,,SCT,0.00,WeatherDisplay:10.37,2013-01-07 15:44:00,
2013-01-07 09:49:00,31.5,20.3,28.97,SSW,202,5.8,5.8,63,0.00,,SCT,0.00,WeatherDisplay:10.37,2013-01-07 15:49:00,
2013-01-07 09:54:00,32.2,20.2,29.00,South,180,8.1,8.1,61,0.00,,SCT,0.00,WeatherDisplay:10.37,2013-01-07 15:54:00,
2013-01-07 09:59:00,32.5,20.2,29.00,WSW,248,4.6,4.6,60,0.00,,SCT,0.00,WeatherDisplay:10.37,2013-01-07 15:59:00,
2013-01-07 10:04:00,32.0,19.3,29.00,SSW,202,6.9,6.9,59,0.00,,SCT,0.00,WeatherDisplay:10.37,2013-01-07 16:04:00,
2013-01-07 10:09:00,31.8,19.5,29.00,WSW,248,8.1,8.1,60,0.00,,SCT,0.00,WeatherDisplay:10.37,2013-01-07 16:09:00,
2013-01-07 10:14:00,31.5,19.2,29.00,West,270,9.2,9.2,60,0.00,,SCT,0.00,WeatherDisplay:10.37,2013-01-07 16:14:00,
2013-01-07 10:19:00,31.8,19.9,29.00,WSW,248,5.8,5.8,61,0.00,,SCT,0.00,WeatherDisplay:10.37,2013-01-07 16:19:00,
2013-01-07 10:24:00,31.6,19.7,29.00,WSW,248,8.1,8.1,61,0.00,,SCT,0.00,WeatherDisplay:10.37,2013-01-07 16:24:00,
2013-01-07 10:29:00,31.8,19.9,29.00,SSW,202,6.9,6.9,61,0.00,,SCT,0.00,WeatherDisplay:10.37,2013-01-07 16:29:00,
2013-01-07 10:34:00,33.1,20.7,29.00,SSW,202,9.2,9.2,60,0.00,,SCT,0.00,WeatherDisplay:10.37,2013-01-07 16:34:00,
2013-01-07 10:39:00,33.3,20.5,29.00,SSW,202,8.1,8.1,59,0.00,,SCT,0.00,WeatherDisplay:10.37,2013-01-07 16:39:00,
2013-01-07 10:44:00,34.0,20.7,29.00,WSW,248,8.1,8.1,58,0.00,,SCT,0.00,WeatherDisplay:10.37,2013-01-07 16:44:00,
2013-01-07 10:49:00,34.0,20.3,29.00,WSW,248,4.6,4.6,57,0.00,,SCT,0.00,WeatherDisplay:10.37,2013-01-07 16:49:00,
2013-01-07 10:54:00,34.7,21.0,29.00,WSW,248,8.1,8.1,57,0.00,,SCT,0.00,WeatherDisplay:10.37,2013-01-07 16:54:00,
2013-01-07 10:59:00,34.2,20.1,29.00,WSW,248,8.5,8.5,56,0.00,,SCT,0.00,WeatherDisplay:10.37,2013-01-07 16:59:00,
2013-01-07 11:04:00,33.6,20.0,29.00,West,270,8.1,8.1,57,0.00,,SCT,0.00,WeatherDisplay:10.37,2013-01-07 17:04:00,
2013-01-07 11:09:00,33.3,20.1,29.00,South,180,5.8,5.8,58,0.00,,SCT,0.00,WeatherDisplay:10.37,2013-01-07 17:09:00,
2013-01-07 11:14:00,33.1,19.9,29.00,WSW,248,5.8,5.8,58,0.00,,SCT,0.00,WeatherDisplay:10.37,2013-01-07 17:14:00,
2013-01-07 11:19:00,33.4,20.2,29.00,WSW,248,6.9,6.9,58,0.00,,SCT,0.00,WeatherDisplay:10.37,2013-01-07 17:19:00,
2013-01-07 11:24:00,34.7,21.4,29.00,SSW,202,6.9,6.9,58,0.00,,SCT,0.00,WeatherDisplay:10.37,2013-01-07 17:24:00,
2013-01-07 11:29:00,34.7,21.0,29.00,SSE,158,5.8,5.8,57,0.00,,SCT,0.00,WeatherDisplay:10.37,2013-01-07 17:29:00,
2013-01-07 11:34:00,34.0,20.3,29.00,SSW,202,6.2,6.2,57,0.00,,SCT,0.00,WeatherDisplay:10.37,2013-01-07 17:34:00,
2013-01-07 11:39:00,34.0,20.3,29.00,WSW,248,5.8,5.8,57,0.00,,SCT,0.00,WeatherDisplay:10.37,2013-01-07 17:39:00,
2013-01-07 11:44:00,34.0,20.3,29.00,WSW,248,4.6,4.6,57,0.00,,SCT,0.00,WeatherDisplay:10.37,2013-01-07 17:44:00,
2013-01-07 11:49:00,34.3,20.7,29.00,SSW,202,4.6,4.6,57,0.00,,SCT,0.00,WeatherDisplay:10.37,2013-01-07 17:49:00,
2013-01-07 11:54:00,34.9,21.2,28.97,WSW,248,5.8,5.8,57,0.00,,SCT,0.00,WeatherDisplay:10.37,2013-01-07 17:54:00,
2013-01-07 11:59:00,35.8,21.6,28.97,SW,225,3.5,3.5,56,0.00,,SCT,0.00,WeatherDisplay:10.37,2013-01-07 17:59:00,
2013-01-07 12:04:00,36.3,21.7,28.97,WSW,248,8.1,8.1,55,0.00,,SCT,0.00,WeatherDisplay:10.37,2013-01-07 18:04:00,
2013-01-07 12:09:00,37.0,21.9,28.97,SSW,202,6.2,6.2,54,0.00,,SCT,0.00,WeatherDisplay:10.37,2013-01-07 18:09:00,
2013-01-07 12:14:00,37.4,21.8,28.97,SW,225,5.8,5.8,53,0.00,,SCT,0.00,WeatherDisplay:10.37,2013-01-07 18:14:00,
2013-01-07 12:19:00,37.6,22.0,28.97,SSW,202,8.1,8.1,53,0.00,,SCT,0.00,WeatherDisplay:10.37,2013-01-07 18:19:00,
2013-01-07 12:24:00,37.8,21.7,28.97,SW,225,7.6,7.6,52,0.00,,SCT,0.00,WeatherDisplay:10.37,2013-01-07 18:24:00,
2013-01-07 12:29:00,37.9,21.9,28.97,WNW,292,6.9,6.9,52,0.00,,SCT,0.00,WeatherDisplay:10.37,2013-01-07 18:29:00,
2013-01-07 12:34:00,38.7,22.5,28.97,West,270,7.1,7.1,52,0.00,,SCT,0.00,WeatherDisplay:10.37,2013-01-07 18:34:00,
2013-01-07 12:39:00,39.6,23.4,28.97,West,270,5.8,5.8,52,0.00,,SCT,0.00,WeatherDisplay:10.37,2013-01-07 18:39:00,
2013-01-07 12:44:00,38.8,22.2,28.97,SSE,158,4.6,4.6,51,0.00,,SCT,0.00,WeatherDisplay:10.37,2013-01-07 18:44:00,
2013-01-07 12:49:00,39.9,23.2,28.97,WSW,248,8.1,8.1,51,0.00,,SCT,0.00,WeatherDisplay:10.37,2013-01-07 18:49:00,
2013-01-07 12:54:00,38.8,22.2,28.94,WSW,248,5.8,5.8,51,0.00,,SCT,0.00,WeatherDisplay:10.37,2013-01-07 18:54:00,
2013-01-07 12:59:00,39.0,22.4,28.94,SSE,158,5.8,5.8,51,0.00,,SCT,0.00,WeatherDisplay:10.37,2013-01-07 18:59:00,
2013-01-07 13:04:00,40.1,22.9,28.94,SSW,202,6.0,6.0,50,0.00,,SCT,0.00,WeatherDisplay:10.37,2013-01-07 19:04:00,
2013-01-07 13:09:00,39.9,22.8,28.94,WSW,248,5.8,5.9,50,0.00,,SCT,0.00,WeatherDisplay:10.37,2013-01-07 19:09:00,
2013-01-07 13:14:00,40.3,23.1,28.94,WSW,248,5.8,5.8,50,0.00,,SCT,0.00,WeatherDisplay:10.37,2013-01-07 19:14:00,
2013-01-07 13:19:00,39.9,22.8,28.94,West,270,7.1,7.1,50,0.00,,SCT,0.00,WeatherDisplay:10.37,2013-01-07 19:19:00,
2013-01-07 13:24:00,40.5,23.3,28.97,West,270,5.9,5.9,50,0.00,,SCT,0.00,WeatherDisplay:10.37,2013-01-07 19:24:00,
2013-01-07 13:29:00,40.1,22.4,28.97,SSW,202,5.8,5.8,49,0.00,,SCT,0.00,WeatherDisplay:10.37,2013-01-07 19:29:00,
2013-01-07 13:34:00,40.3,22.6,28.97,South,180,6.9,6.9,49,0.00,,SCT,0.00,WeatherDisplay:10.37,2013-01-07 19:34:00,
2013-01-07 13:39:00,40.6,22.9,28.97,WSW,248,4.6,4.6,49,0.00,,SCT,0.00,WeatherDisplay:10.37,2013-01-07 19:39:00,
2013-01-07 13:44:00,40.3,22.6,28.97,SSW,202,8.1,8.1,49,0.00,,SCT,0.00,WeatherDisplay:10.37,2013-01-07 19:44:00,
2013-01-07 13:49:00,40.5,22.8,28.97,South,180,5.8,5.8,49,0.00,,SCT,0.00,WeatherDisplay:10.37,2013-01-07 19:49:00,
2013-01-07 13:54:00,41.4,23.6,28.94,WSW,248,4.6,4.6,49,0.00,,SCT,0.00,WeatherDisplay:10.37,2013-01-07 19:54:00,
2013-01-07 13:59:00,41.0,23.3,28.94,SSW,202,6.9,6.9,49,0.00,,SCT,0.00,WeatherDisplay:10.37,2013-01-07 19:59:00,
2013-01-07 14:04:00,40.6,22.9,28.94,SSW,202,5.8,5.8,49,0.00,,SCT,0.00,WeatherDisplay:10.37,2013-01-07 20:04:00,
2013-01-07 14:09:00,40.3,22.6,28.97,SW,225,5.8,5.8,49,0.00,,SCT,0.00,WeatherDisplay:10.37,2013-01-07 20:09:00,
2013-01-07 14:14:00,40.5,22.8,28.97,SSW,202,5.8,5.8,49,0.00,,SCT,0.00,WeatherDisplay:10.37,2013-01-07 20:14:00,
2013-01-07 14:19:00,40.1,22.4,28.97,SSW,202,5.8,5.8,49,0.00,,SCT,0.00,WeatherDisplay:10.37,2013-01-07 20:19:00,
2013-01-07 14:24:00,40.1,22.9,28.97,SSW,202,5.8,5.8,50,0.00,,SCT,0.00,WeatherDisplay:10.37,2013-01-07 20:24:00,
2013-01-07 14:29:00,40.5,23.3,28.97,SW,225,5.9,5.9,50,0.00,,SCT,0.00,WeatherDisplay:10.37,2013-01-07 20:29:00,
2013-01-07 14:34:00,40.6,23.4,28.97,SSW,202,5.8,5.8,50,0.00,,SCT,0.00,WeatherDisplay:10.37,2013-01-07 20:34:00,
2013-01-07 14:39:00,41.2,23.4,28.97,WSW,248,4.9,4.9,49,0.00,,SCT,0.00,WeatherDisplay:10.37,2013-01-07 20:39:00,
2013-01-07 14:44:00,41.0,23.3,28.97,SSW,202,4.6,4.6,49,0.00,,SCT,0.00,WeatherDisplay:10.37,2013-01-07 20:44:00,
2013-01-07 14:49:00,40.3,22.6,28.97,SSW,202,5.8,5.8,49,0.00,,SCT,0.00,WeatherDisplay:10.37,2013-01-07 20:49:00,
2013-01-07 14:54:00,39.6,22.4,28.97,SSE,158,6.9,6.9,50,0.00,,SCT,0.00,WeatherDisplay:10.37,2013-01-07 20:54:00,
2013-01-07 14:59:00,39.6,22.4,28.97,SSW,202,5.8,5.8,50,0.00,,SCT,0.00,WeatherDisplay:10.37,2013-01-07 20:59:00,
2013-01-07 15:04:00,39.7,22.6,28.97,WSW,248,4.6,4.6,50,0.00,,SCT,0.00,WeatherDisplay:10.37,2013-01-07 21:04:00,
2013-01-07 15:09:00,39.6,22.4,28.97,SW,225,5.8,5.8,50,0.00,,SCT,0.00,WeatherDisplay:10.37,2013-01-07 21:09:00,
2013-01-07 15:14:00,39.6,22.4,28.97,SSW,202,4.6,4.6,50,0.00,,SCT,0.00,WeatherDisplay:10.37,2013-01-07 21:14:00,
2013-01-07 15:19:00,39.6,22.4,28.97,SSW,202,3.5,3.5,50,0.00,,SCT,0.00,WeatherDisplay:10.37,2013-01-07 21:19:00,
2013-01-07 15:24:00,39.6,22.4,29.00,South,180,5.9,5.9,50,0.00,,SCT,0.00,WeatherDisplay:10.37,2013-01-07 21:24:00,
2013-01-07 15:29:00,39.0,22.4,29.00,SSW,202,5.6,5.6,51,0.00,,SCT,0.00,WeatherDisplay:10.37,2013-01-07 21:29:00,
2013-01-07 15:34:00,38.8,22.2,29.00,SSE,158,4.6,4.6,51,0.00,,SCT,0.00,WeatherDisplay:10.37,2013-01-07 21:34:00,
2013-01-07 15:39:00,38.7,22.1,28.97,SW,225,4.6,4.6,51,0.00,,SCT,0.00,WeatherDisplay:10.37,2013-01-07 21:39:00,
2013-01-07 15:44:00,38.7,22.1,28.97,SW,225,6.2,6.2,51,0.00,,SCT,0.00,WeatherDisplay:10.37,2013-01-07 21:44:00,
2013-01-07 15:49:00,38.5,21.9,28.97,SSW,202,6.9,6.9,51,0.00,,SCT,0.00,WeatherDisplay:10.37,2013-01-07 21:49:00,
2013-01-07 15:54:00,38.1,21.6,29.00,WSW,248,6.9,6.9,51,0.00,,SCT,0.00,WeatherDisplay:10.37,2013-01-07 21:54:00,
2013-01-07 15:59:00,37.9,21.9,29.00,SSW,202,4.6,4.6,52,0.00,,SCT,0.00,WeatherDisplay:10.37,2013-01-07 21:59:00,
2013-01-07 16:04:00,37.9,21.9,29.00,SSW,202,5.8,5.8,52,0.00,,SCT,0.00,WeatherDisplay:10.37,2013-01-07 22:04:00,
2013-01-07 16:09:00,37.6,21.5,29.00,West,270,6.4,6.4,52,0.00,,SCT,0.00,WeatherDisplay:10.37,2013-01-07 22:09:00,
2013-01-07 16:14:00,37.4,21.4,29.00,SSW,202,5.8,5.8,52,0.00,,SCT,0.00,WeatherDisplay:10.37,2013-01-07 22:14:00,
2013-01-07 16:19:00,37.2,21.6,29.00,WSW,248,3.5,3.5,53,0.00,,SCT,0.00,WeatherDisplay:10.37,2013-01-07 22:19:00,
2013-01-07 16:24:00,36.7,21.1,29.00,SW,225,3.5,3.5,53,0.00,,SCT,0.00,WeatherDisplay:10.37,2013-01-07 22:24:00,
2013-01-07 16:29:00,35.8,20.7,29.00,SSW,202,4.6,4.6,54,0.00,,SCT,0.00,WeatherDisplay:10.37,2013-01-07 22:29:00,
2013-01-07 16:34:00,34.9,20.3,29.00,SW,225,3.5,3.5,55,0.00,,SCT,0.00,WeatherDisplay:10.37,2013-01-07 22:34:00,
2013-01-07 16:39:00,34.3,20.3,29.00,SSW,202,4.6,4.6,56,0.00,,SCT,0.00,WeatherDisplay:10.37,2013-01-07 22:39:00,
2013-01-07 16:44:00,33.3,20.5,29.00,SSW,202,3.5,3.5,59,0.00,,SCT,0.00,WeatherDisplay:10.37,2013-01-07 22:44:00,
2013-01-07 16:49:00,32.7,21.1,29.00,SW,225,4.6,4.6,62,0.00,,SCT,0.00,WeatherDisplay:10.37,2013-01-07 22:49:00,
2013-01-07 16:54:00,32.2,21.0,29.00,SSW,202,3.5,3.5,63,0.00,,SCT,0.00,WeatherDisplay:10.37,2013-01-07 22:54:00,
2013-01-07 16:59:00,31.8,21.4,29.00,SW,225,4.3,4.3,65,0.00,,SCT,0.00,WeatherDisplay:10.37,2013-01-07 22:59:00,
2013-01-07 17:04:00,31.5,21.8,29.00,SSW,202,4.6,4.6,67,0.00,,SCT,0.00,WeatherDisplay:10.37,2013-01-07 23:04:00,
2013-01-07 17:09:00,31.1,21.8,29.03,South,180,4.6,4.6,68,0.00,,SCT,0.00,WeatherDisplay:10.37,2013-01-07 23:09:00,
2013-01-07 17:14:00,30.9,21.9,29.03,SSW,202,5.8,5.8,69,0.00,,SCT,0.00,WeatherDisplay:10.37,2013-01-07 23:14:00,
2013-01-07 17:19:00,30.6,21.9,29.03,SW,225,4.6,4.6,70,0.00,,SCT,0.00,WeatherDisplay:10.37,2013-01-07 23:19:00,
2013-01-07 17:24:00,30.4,22.1,29.03,SSW,202,3.8,3.8,71,0.00,,SCT,0.00,WeatherDisplay:10.37,2013-01-07 23:24:00,
2013-01-07 17:29:00,30.2,22.3,29.03,SSW,202,3.5,3.5,72,0.00,,SCT,0.00,WeatherDisplay:10.37,2013-01-07 23:29:00,
2013-01-07 17:34:00,30.2,22.3,29.03,SSW,202,4.6,4.6,72,0.00,,SCT,0.00,WeatherDisplay:10.37,2013-01-07 23:34:00,
2013-01-07 17:39:00,30.2,22.6,29.03,SSW,202,4.6,4.6,73,0.00,,SCT,0.00,WeatherDisplay:10.37,2013-01-07 23:39:00,
2013-01-07 17:44:00,30.2,22.6,29.03,SW,225,4.6,4.6,73,0.00,,SCT,0.00,WeatherDisplay:10.37,2013-01-07 23:44:00,
2013-01-07 17:49:00,30.2,22.6,29.03,SSW,202,4.6,4.6,73,0.00,,SCT,0.00,WeatherDisplay:10.37,2013-01-07 23:49:00,
2013-01-07 17:54:00,30.0,22.4,29.03,WSW,248,3.5,3.5,73,0.00,,SCT,0.00,WeatherDisplay:10.37,2013-01-07 23:54:00,
2013-01-07 17:59:00,29.7,22.1,29.03,SSW,202,4.6,4.6,73,0.00,,SCT,0.00,WeatherDisplay:10.37,2013-01-07 23:59:00,
2013-01-07 18:04:00,29.7,22.4,29.03,SW,225,4.6,4.6,74,0.00,,SCT,0.00,WeatherDisplay:10.37,2013-01-08 00:04:00,
2013-01-07 18:09:00,29.5,22.5,29.00,SSW,202,4.6,4.6,75,0.00,,SCT,0.00,WeatherDisplay:10.37,2013-01-08 00:09:00,
2013-01-07 18:14:00,29.1,22.2,29.00,SSW,202,3.6,3.6,75,0.00,,SCT,0.00,WeatherDisplay:10.37,2013-01-08 00:14:00,
2013-01-07 18:19:00,28.6,21.3,29.00,South,180,2.3,2.4,74,0.00,,SCT,0.00,WeatherDisplay:10.37,2013-01-08 00:19:00,
2013-01-07 18:24:00,28.6,22.0,29.03,SW,225,3.5,3.5,76,0.00,,SCT,0.00,WeatherDisplay:10.37,2013-01-08 00:24:00,
2013-01-07 18:29:00,28.6,22.3,29.03,SSW,202,2.6,2.6,77,0.00,,SCT,0.00,WeatherDisplay:10.37,2013-01-08 00:29:00,
2013-01-07 18:34:00,28.6,22.3,29.03,SSW,202,3.5,3.5,77,0.00,,SCT,0.00,WeatherDisplay:10.37,2013-01-08 00:34:00,
2013-01-07 18:39:00,28.6,22.6,29.03,SW,225,5.8,5.8,78,0.00,,SCT,0.00,WeatherDisplay:10.37,2013-01-08 00:39:00,
2013-01-07 18:44:00,28.4,22.4,29.03,SSW,202,3.5,3.5,78,0.00,,SCT,0.00,WeatherDisplay:10.37,2013-01-08 00:44:00,
2013-01-07 18:49:00,28.2,22.5,29.03,SSW,202,5.8,5.8,79,0.00,,SCT,0.00,WeatherDisplay:10.37,2013-01-08 00:49:00,
2013-01-07 18:54:00,27.9,22.2,29.03,SSW,202,3.5,3.5,79,0.00,,SCT,0.00,WeatherDisplay:10.37,2013-01-08 00:54:00,
2013-01-07 18:59:00,27.9,22.5,29.03,SSW,202,3.1,3.1,80,0.00,,SCT,0.00,WeatherDisplay:10.37,2013-01-08 00:59:00,
2013-01-07 19:04:00,27.9,22.5,29.03,SSW,202,4.6,4.6,80,0.00,,SCT,0.00,WeatherDisplay:10.37,2013-01-08 01:04:00,
2013-01-07 19:09:00,27.7,22.3,29.03,SSW,202,3.5,3.5,80,0.00,,SCT,0.00,WeatherDisplay:10.37,2013-01-08 01:09:00,
2013-01-07 19:15:00,27.5,22.1,29.03,SSW,202,4.6,4.6,80,0.00,,SCT,0.00,WeatherDisplay:10.37,2013-01-08 01:15:00,
2013-01-07 19:20:00,27.3,22.0,29.03,SSW,202,2.4,2.9,80,0.00,,SCT,0.00,WeatherDisplay:10.37,2013-01-08 01:20:00,
2013-01-07 19:25:00,27.1,22.1,29.03,SSW,202,3.5,3.5,81,0.00,,SCT,0.00,WeatherDisplay:10.37,2013-01-08 01:25:00,
2013-01-07 19:30:00,27.1,22.4,29.03,SW,225,4.6,4.6,82,0.00,,SCT,0.00,WeatherDisplay:10.37,2013-01-08 01:30:00,
2013-01-07 19:35:00,27.1,22.7,29.03,SSW,202,4.6,4.6,83,0.00,,SCT,0.00,WeatherDisplay:10.37,2013-01-08 01:35:00,
2013-01-07 19:40:00,26.8,22.0,29.03,SSW,202,3.5,3.5,82,0.00,,SCT,0.00,WeatherDisplay:10.37,2013-01-08 01:40:00,
2013-01-07 19:45:00,26.6,21.8,29.03,SSW,202,2.9,2.9,82,0.00,,SCT,0.00,WeatherDisplay:10.37,2013-01-08 01:45:00,
2013-01-07 19:50:00,26.6,22.4,29.03,SSW,202,3.5,3.5,84,0.00,,SCT,0.00,WeatherDisplay:10.37,2013-01-08 01:50:00,
2013-01-07 19:55:00,26.4,22.2,29.03,SSW,202,2.0,0.0,84,0.00,,SCT,0.00,WeatherDisplay:10.37,2013-01-08 01:55:00,
2013-01-07 20:00:00,26.2,22.1,29.03,SW,225,3.5,3.5,84,0.00,,SCT,0.00,WeatherDisplay:10.37,2013-01-08 02:00:00,
2013-01-07 20:05:00,26.1,21.9,29.03,SSW,203,2.0,0.0,84,0.00,,SCT,0.00,WeatherDisplay:10.37,2013-01-08 02:05:00,
2013-01-07 20:10:00,25.9,22.0,29.03,SSW,202,2.4,2.4,85,0.00,,SCT,0.00,WeatherDisplay:10.37,2013-01-08 02:10:00,
2013-01-07 20:15:00,25.7,21.3,29.03,SSW,202,2.3,2.3,83,0.00,,SCT,0.00,WeatherDisplay:10.37,2013-01-08 02:15:00,
2013-01-07 20:20:00,25.7,21.3,29.03,SSW,212,1.0,0.0,83,0.00,,SCT,0.00,WeatherDisplay:10.37,2013-01-08 02:20:00,
2013-01-07 20:25:00,25.5,21.4,29.03,SSW,202,1.6,1.6,84,0.00,,SCT,0.00,WeatherDisplay:10.37,2013-01-08 02:25:00,
2013-01-07 20:30:00,25.3,21.2,29.03,SSW,206,1.0,0.0,84,0.00,,SCT,0.00,WeatherDisplay:10.37,2013-01-08 02:30:00,
2013-01-07 20:35:00,25.3,21.5,29.03,SSW,206,2.0,0.0,85,0.00,,SCT,0.00,WeatherDisplay:10.37,2013-01-08 02:35:00,
2013-01-07 20:40:00,25.3,22.0,29.03,SSW,202,3.5,3.5,87,0.00,,SCT,0.00,WeatherDisplay:10.37,2013-01-08 02:40:00,
2013-01-07 20:45:00,25.3,22.0,29.03,SSW,204,2.0,0.0,87,0.00,,SCT,0.00,WeatherDisplay:10.37,2013-01-08 02:45:00,
2013-01-07 20:50:00,25.2,21.8,29.03,SE,135,3.5,3.5,87,0.00,,SCT,0.00,WeatherDisplay:10.37,2013-01-08 02:50:00,
2013-01-07 20:55:00,24.8,21.8,29.00,SSW,202,3.5,3.5,88,0.00,,SCT,0.00,WeatherDisplay:10.37,2013-01-08 02:55:00,
2013-01-07 21:00:00,24.8,21.8,29.00,SSW,202,3.5,3.5,88,0.00,,SCT,0.00,WeatherDisplay:10.37,2013-01-08 03:00:00,
2013-01-07 21:05:00,24.6,21.6,29.00,SSW,209,1.0,0.0,88,0.00,,SCT,0.00,WeatherDisplay:10.37,2013-01-08 03:05:00,
2013-01-07 21:10:00,24.6,21.3,29.03,WSW,250,0.0,0.0,87,0.00,,SCT,0.00,WeatherDisplay:10.37,2013-01-08 03:10:00,
2013-01-07 21:15:00,24.8,21.5,29.03,SW,218,1.0,0.0,87,0.00,,SCT,0.00,WeatherDisplay:10.37,2013-01-08 03:15:00,
2013-01-07 21:20:00,24.6,21.3,29.03,SSW,202,2.3,2.3,87,0.00,,SCT,0.00,WeatherDisplay:10.37,2013-01-08 03:20:00,
2013-01-07 21:25:00,24.6,21.6,29.03,SSW,202,2.4,2.4,88,0.00,,SCT,0.00,WeatherDisplay:10.37,2013-01-08 03:25:00,
2013-01-07 21:30:00,24.6,21.8,29.03,SSW,202,2.3,2.3,89,0.00,,SCT,0.00,WeatherDisplay:10.37,2013-01-08 03:30:00,
2013-01-07 21:35:00,24.6,21.8,29.03,SSW,202,2.4,2.4,89,0.00,,SCT,0.00,WeatherDisplay:10.37,2013-01-08 03:35:00,
2013-01-07 21:40:00,24.6,22.1,29.03,SSW,202,2.3,2.4,90,0.00,,SCT,0.00,WeatherDisplay:10.37,2013-01-08 03:40:00,
2013-01-07 21:45:00,24.6,22.1,29.03,SSW,202,3.5,3.5,90,0.00,,SCT,0.00,WeatherDisplay:10.37,2013-01-08 03:45:00,
2013-01-07 21:50:00,24.6,22.1,29.03,SSW,202,3.1,3.1,90,0.00,,SCT,0.00,WeatherDisplay:10.37,2013-01-08 03:50:00,
2013-01-07 21:55:00,24.6,22.1,29.03,SSW,202,2.3,2.3,90,0.00,,SCT,0.00,WeatherDisplay:10.37,2013-01-08 03:55:00,
2013-01-07 22:00:00,24.6,22.1,29.03,South,180,2.3,2.3,90,0.00,,SCT,0.00,WeatherDisplay:10.37,2013-01-08 04:00:00,
2013-01-07 22:05:00,24.9,22.4,29.03,SSW,204,2.0,0.0,90,0.00,,SCT,0.00,WeatherDisplay:10.37,2013-01-08 04:05:00,
2013-01-07 22:10:00,25.2,22.9,29.03,SSW,209,2.0,0.0,91,0.00,,SCT,0.00,WeatherDisplay:10.37,2013-01-08 04:10:00,
2013-01-07 22:15:00,25.3,23.1,29.03,SSW,202,2.3,2.4,91,0.00,,SCT,0.00,WeatherDisplay:10.37,2013-01-08 04:15:00,
2013-01-07 22:20:00,25.3,22.8,29.03,SSW,208,2.0,0.0,90,0.00,,SCT,0.00,WeatherDisplay:10.37,2013-01-08 04:20:00,
2013-01-07 22:25:00,25.5,23.0,29.03,SSW,212,2.0,0.0,90,0.00,,SCT,0.00,WeatherDisplay:10.37,2013-01-08 04:25:00,
2013-01-07 22:30:00,25.7,23.2,29.03,SSW,208,2.0,0.0,90,0.00,,SCT,0.00,WeatherDisplay:10.37,2013-01-08 04:30:00,
2013-01-07 22:35:00,25.7,22.9,29.03,SSW,202,2.3,2.3,89,0.00,,SCT,0.00,WeatherDisplay:10.37,2013-01-08 04:35:00,
2013-01-07 22:40:00,26.1,23.5,29.03,SSW,211,3.0,0.0,90,0.00,,SCT,0.00,WeatherDisplay:10.37,2013-01-08 04:40:00,
2013-01-07 22:45:00,26.1,23.3,29.03,SSW,202,3.5,3.5,89,0.00,,SCT,0.00,WeatherDisplay:10.37,2013-01-08 04:45:00,
2013-01-07 22:50:00,26.1,23.3,29.03,SSW,207,1.0,0.0,89,0.00,,SCT,0.00,WeatherDisplay:10.37,2013-01-08 04:50:00,
2013-01-07 22:55:00,26.1,23.0,29.00,SSW,210,2.0,0.0,88,0.00,,SCT,0.00,WeatherDisplay:10.37,2013-01-08 04:55:00,
2013-01-07 23:00:00,25.9,22.8,29.00,SSW,202,3.5,3.5,88,0.00,,SCT,0.00,WeatherDisplay:10.37,2013-01-08 05:00:00,
2013-01-07 23:03:00,25.7,22.4,29.00,SSW,202,2.6,2.6,87,0.00,,SCT,0.00,WeatherDisplay:10.37,2013-01-08 05:03:00,
2013-01-07 23:08:00,25.7,22.4,29.03,WSW,248,1.1,1.1,87,0.00,,SCT,0.00,WeatherDisplay:10.37,2013-01-08 05:08:00,
2013-01-07 23:13:00,25.7,22.4,29.03,SSW,202,2.4,2.4,87,0.00,,SCT,0.00,WeatherDisplay:10.37,2013-01-08 05:13:00,
2013-01-07 23:18:00,25.9,22.5,29.03,WSW,248,4.0,4.0,87,0.00,,SCT,0.00,WeatherDisplay:10.37,2013-01-08 05:18:00,
2013-01-07 23:23:00,25.7,22.6,29.03,SSW,202,3.5,3.5,88,0.00,,SCT,0.00,WeatherDisplay:10.37,2013-01-08 05:23:00,
2013-01-07 23:28:00,25.3,22.0,29.03,WSW,248,4.6,4.6,87,0.00,,SCT,0.00,WeatherDisplay:10.37,2013-01-08 05:28:00,
2013-01-07 23:33:00,25.3,22.0,29.03,SSW,202,3.5,3.5,87,0.00,,SCT,0.00,WeatherDisplay:10.37,2013-01-08 05:33:00,
2013-01-07 23:38:00,25.2,21.6,29.03,SSW,202,2.3,2.3,86,0.00,,SCT,0.00,WeatherDisplay:10.37,2013-01-08 05:38:00,
2013-01-07 23:43:00,24.8,21.5,29.03,SW,225,2.3,2.3,87,0.00,,SCT,0.00,WeatherDisplay:10.37,2013-01-08 05:43:00,
2013-01-07 23:48:00,24.8,21.5,29.03,SW,225,2.3,2.3,87,0.00,,SCT,0.00,WeatherDisplay:10.37,2013-01-08 05:48:00,
2013-01-07 23:53:00,24.4,21.1,29.03,West,270,1.1,0.0,87,0.00,,SCT,0.00,WeatherDisplay:10.37,2013-01-08 05:53:00,
2013-01-07 23:58:00,23.9,20.3,29.03,West,270,0.0,0.0,86,0.00,,SCT,0.00,WeatherDisplay:10.37,2013-01-08 05:58:00,